sensor_id;sensor_type;location;lat;lon;timestamp;temperature;humidity
33476;DHT22;19814;48.224;11.422;2024-02-14T00:01:05;1.50;99.90
33476;DHT22;19814;48.224;11.422;2024-02-14T00:03:34;1.50;99.90
33476;DHT22;19814;48.224;11.422;2024-02-14T00:05:59;1.50;99.90
33476;DHT22;19814;48.224;11.422;2024-02-14T00:08:25;1.50;99.90
33476;DHT22;19814;48.224;11.422;2024-02-14T00:10:50;1.50;99.90
33476;DHT22;19814;48.224;11.422;2024-02-14T00:13:16;1.50;99.90
33476;DHT22;19814;48.224;11.422;2024-02-14T00:15:43;1.40;99.90
33476;DHT22;19814;48.224;11.422;2024-02-14T00:18:09;1.50;99.90
33476;DHT22;19814;48.224;11.422;2024-02-14T00:20:35;1.50;99.90
33476;DHT22;19814;48.224;11.422;2024-02-14T00:23:01;1.50;99.90
33476;DHT22;19814;48.224;11.422;2024-02-14T00:25:27;1.60;99.90
33476;DHT22;19814;48.224;11.422;2024-02-14T00:27:52;1.70;99.90
33476;DHT22;19814;48.224;11.422;2024-02-14T00:30:19;1.70;99.90
33476;DHT22;19814;48.224;11.422;2024-02-14T00:32:44;1.80;99.90
33476;DHT22;19814;48.224;11.422;2024-02-14T00:35:10;1.80;99.90
33476;DHT22;19814;48.224;11.422;2024-02-14T00:37:36;1.90;99.90
33476;DHT22;19814;48.224;11.422;2024-02-14T00:40:01;2.00;99.90
33476;DHT22;19814;48.224;11.422;2024-02-14T00:42:27;2.00;99.90
33476;DHT22;19814;48.224;11.422;2024-02-14T00:44:52;1.90;99.90
33476;DHT22;19814;48.224;11.422;2024-02-14T00:47:18;2.00;99.90
33476;DHT22;19814;48.224;11.422;2024-02-14T00:49:43;2.10;99.90
33476;DHT22;19814;48.224;11.422;2024-02-14T00:52:09;2.30;99.90
33476;DHT22;19814;48.224;11.422;2024-02-14T00:54:34;2.30;99.90
33476;DHT22;19814;48.224;11.422;2024-02-14T00:57:00;2.40;99.90
33476;DHT22;19814;48.224;11.422;2024-02-14T00:59:25;2.40;99.90
33476;DHT22;19814;48.224;11.422;2024-02-14T01:01:51;2.40;99.90
33476;DHT22;19814;48.224;11.422;2024-02-14T01:04:19;2.30;99.90
33476;DHT22;19814;48.224;11.422;2024-02-14T01:06:45;2.10;99.90
33476;DHT22;19814;48.224;11.422;2024-02-14T01:09:10;2.00;99.90
33476;DHT22;19814;48.224;11.422;2024-02-14T01:11:36;2.00;99.90
33476;DHT22;19814;48.224;11.422;2024-02-14T01:14:03;2.00;99.90
33476;DHT22;19814;48.224;11.422;2024-02-14T01:16:29;2.00;99.90
33476;DHT22;19814;48.224;11.422;2024-02-14T01:18:55;2.00;99.90
33476;DHT22;19814;48.224;11.422;2024-02-14T01:21:20;2.00;99.90
33476;DHT22;19814;48.224;11.422;2024-02-14T01:23:45;2.00;99.90
33476;DHT22;19814;48.224;11.422;2024-02-14T01:26:11;2.10;99.90
33476;DHT22;19814;48.224;11.422;2024-02-14T01:28:36;2.10;99.90
33476;DHT22;19814;48.224;11.422;2024-02-14T01:31:03;2.00;99.90
33476;DHT22;19814;48.224;11.422;2024-02-14T01:33:28;2.10;99.90
33476;DHT22;19814;48.224;11.422;2024-02-14T01:35:56;2.10;99.90
33476;DHT22;19814;48.224;11.422;2024-02-14T01:38:21;2.20;99.90
33476;DHT22;19814;48.224;11.422;2024-02-14T01:40:47;2.30;99.90
33476;DHT22;19814;48.224;11.422;2024-02-14T01:43:12;2.30;99.90
33476;DHT22;19814;48.224;11.422;2024-02-14T01:45:39;2.30;99.90
33476;DHT22;19814;48.224;11.422;2024-02-14T01:48:05;2.30;99.90
33476;DHT22;19814;48.224;11.422;2024-02-14T01:50:31;2.40;99.90
33476;DHT22;19814;48.224;11.422;2024-02-14T01:52:58;2.30;99.90
33476;DHT22;19814;48.224;11.422;2024-02-14T01:55:24;2.30;99.90
33476;DHT22;19814;48.224;11.422;2024-02-14T01:57:50;2.30;99.90
33476;DHT22;19814;48.224;11.422;2024-02-14T02:00:16;2.20;99.90
33476;DHT22;19814;48.224;11.422;2024-02-14T02:02:43;2.20;99.90
33476;DHT22;19814;48.224;11.422;2024-02-14T02:05:09;2.30;99.90
33476;DHT22;19814;48.224;11.422;2024-02-14T02:07:34;2.50;99.90
33476;DHT22;19814;48.224;11.422;2024-02-14T02:09:59;2.60;99.90
33476;DHT22;19814;48.224;11.422;2024-02-14T02:12:26;2.70;99.90
33476;DHT22;19814;48.224;11.422;2024-02-14T02:14:53;2.60;99.90
33476;DHT22;19814;48.224;11.422;2024-02-14T02:17:18;2.50;99.90
33476;DHT22;19814;48.224;11.422;2024-02-14T02:19:44;2.50;99.90
33476;DHT22;19814;48.224;11.422;2024-02-14T02:22:09;2.50;99.90
33476;DHT22;19814;48.224;11.422;2024-02-14T02:24:35;2.50;99.90
33476;DHT22;19814;48.224;11.422;2024-02-14T02:27:01;2.50;99.90
33476;DHT22;19814;48.224;11.422;2024-02-14T02:29:26;2.50;99.90
33476;DHT22;19814;48.224;11.422;2024-02-14T02:31:52;2.40;99.90
33476;DHT22;19814;48.224;11.422;2024-02-14T02:34:18;2.50;99.90
33476;DHT22;19814;48.224;11.422;2024-02-14T02:36:43;2.50;99.90
33476;DHT22;19814;48.224;11.422;2024-02-14T02:39:08;2.60;99.90
33476;DHT22;19814;48.224;11.422;2024-02-14T02:41:34;2.60;99.90
33476;DHT22;19814;48.224;11.422;2024-02-14T02:44:00;2.60;99.90
33476;DHT22;19814;48.224;11.422;2024-02-14T02:46:27;2.70;99.90
33476;DHT22;19814;48.224;11.422;2024-02-14T02:48:52;2.70;99.90
33476;DHT22;19814;48.224;11.422;2024-02-14T02:51:20;2.80;99.90
33476;DHT22;19814;48.224;11.422;2024-02-14T02:53:46;2.90;99.90
33476;DHT22;19814;48.224;11.422;2024-02-14T02:56:12;3.00;99.90
33476;DHT22;19814;48.224;11.422;2024-02-14T02:58:38;3.10;99.90
33476;DHT22;19814;48.224;11.422;2024-02-14T03:01:07;3.10;99.90
33476;DHT22;19814;48.224;11.422;2024-02-14T03:03:32;3.20;99.90
33476;DHT22;19814;48.224;11.422;2024-02-14T03:05:58;3.30;99.90
33476;DHT22;19814;48.224;11.422;2024-02-14T03:08:25;3.30;99.90
33476;DHT22;19814;48.224;11.422;2024-02-14T03:10:51;3.30;99.90
33476;DHT22;19814;48.224;11.422;2024-02-14T03:13:16;3.40;99.90
33476;DHT22;19814;48.224;11.422;2024-02-14T03:15:42;3.30;99.90
33476;DHT22;19814;48.224;11.422;2024-02-14T03:18:09;3.30;99.90
33476;DHT22;19814;48.224;11.422;2024-02-14T03:20:35;3.30;99.90
33476;DHT22;19814;48.224;11.422;2024-02-14T03:23:01;3.30;99.90
33476;DHT22;19814;48.224;11.422;2024-02-14T03:25:26;3.30;99.90
33476;DHT22;19814;48.224;11.422;2024-02-14T03:27:52;3.30;99.90
33476;DHT22;19814;48.224;11.422;2024-02-14T03:30:19;3.40;99.90
33476;DHT22;19814;48.224;11.422;2024-02-14T03:32:45;3.50;99.90
33476;DHT22;19814;48.224;11.422;2024-02-14T03:35:11;3.40;99.90
33476;DHT22;19814;48.224;11.422;2024-02-14T03:37:39;3.50;99.90
33476;DHT22;19814;48.224;11.422;2024-02-14T03:40:04;3.50;99.90
33476;DHT22;19814;48.224;11.422;2024-02-14T03:42:30;3.40;99.90
33476;DHT22;19814;48.224;11.422;2024-02-14T03:44:56;3.50;99.90
33476;DHT22;19814;48.224;11.422;2024-02-14T03:47:30;3.50;99.90
33476;DHT22;19814;48.224;11.422;2024-02-14T03:49:57;3.50;99.90
33476;DHT22;19814;48.224;11.422;2024-02-14T03:52:22;3.40;99.90
33476;DHT22;19814;48.224;11.422;2024-02-14T03:54:48;3.30;99.90
33476;DHT22;19814;48.224;11.422;2024-02-14T03:57:13;3.30;99.90
33476;DHT22;19814;48.224;11.422;2024-02-14T03:59:39;3.20;99.90
33476;DHT22;19814;48.224;11.422;2024-02-14T04:02:05;3.20;99.90
33476;DHT22;19814;48.224;11.422;2024-02-14T04:04:34;3.10;99.90
33476;DHT22;19814;48.224;11.422;2024-02-14T04:06:59;3.10;99.90
33476;DHT22;19814;48.224;11.422;2024-02-14T04:09:26;3.10;99.90
33476;DHT22;19814;48.224;11.422;2024-02-14T04:11:51;3.10;99.90
33476;DHT22;19814;48.224;11.422;2024-02-14T04:14:17;3.00;99.90
33476;DHT22;19814;48.224;11.422;2024-02-14T04:16:42;2.80;99.90
33476;DHT22;19814;48.224;11.422;2024-02-14T04:19:08;2.70;99.90
33476;DHT22;19814;48.224;11.422;2024-02-14T04:21:36;2.60;99.90
33476;DHT22;19814;48.224;11.422;2024-02-14T04:24:03;2.70;99.90
33476;DHT22;19814;48.224;11.422;2024-02-14T04:26:28;2.80;99.90
33476;DHT22;19814;48.224;11.422;2024-02-14T04:28:54;2.80;99.90
33476;DHT22;19814;48.224;11.422;2024-02-14T04:31:19;2.90;99.90
33476;DHT22;19814;48.224;11.422;2024-02-14T04:33:44;3.00;99.90
33476;DHT22;19814;48.224;11.422;2024-02-14T04:36:15;3.00;99.90
33476;DHT22;19814;48.224;11.422;2024-02-14T04:38:41;3.10;99.90
33476;DHT22;19814;48.224;11.422;2024-02-14T04:41:06;3.20;99.90
33476;DHT22;19814;48.224;11.422;2024-02-14T04:43:32;3.30;99.90
33476;DHT22;19814;48.224;11.422;2024-02-14T04:45:57;3.40;99.90
33476;DHT22;19814;48.224;11.422;2024-02-14T04:48:23;3.40;99.90
33476;DHT22;19814;48.224;11.422;2024-02-14T04:50:48;3.50;99.90
33476;DHT22;19814;48.224;11.422;2024-02-14T04:53:14;3.50;99.90
33476;DHT22;19814;48.224;11.422;2024-02-14T04:55:41;3.50;99.90
33476;DHT22;19814;48.224;11.422;2024-02-14T04:58:07;3.50;99.90
33476;DHT22;19814;48.224;11.422;2024-02-14T05:00:32;3.50;99.90
33476;DHT22;19814;48.224;11.422;2024-02-14T05:02:58;3.40;99.90
33476;DHT22;19814;48.224;11.422;2024-02-14T05:05:23;3.40;99.90
33476;DHT22;19814;48.224;11.422;2024-02-14T05:07:49;3.40;99.90
33476;DHT22;19814;48.224;11.422;2024-02-14T05:10:14;3.40;99.90
33476;DHT22;19814;48.224;11.422;2024-02-14T05:12:40;3.40;99.90
33476;DHT22;19814;48.224;11.422;2024-02-14T05:15:05;3.50;99.90
33476;DHT22;19814;48.224;11.422;2024-02-14T05:17:31;3.50;99.90
33476;DHT22;19814;48.224;11.422;2024-02-14T05:19:56;3.50;99.90
33476;DHT22;19814;48.224;11.422;2024-02-14T05:22:22;3.60;99.90
33476;DHT22;19814;48.224;11.422;2024-02-14T05:24:48;3.60;99.90
33476;DHT22;19814;48.224;11.422;2024-02-14T05:27:13;3.70;99.90
33476;DHT22;19814;48.224;11.422;2024-02-14T05:29:38;3.70;99.90
33476;DHT22;19814;48.224;11.422;2024-02-14T05:32:04;3.70;99.90
33476;DHT22;19814;48.224;11.422;2024-02-14T05:34:30;3.60;99.90
33476;DHT22;19814;48.224;11.422;2024-02-14T05:36:55;3.70;99.90
33476;DHT22;19814;48.224;11.422;2024-02-14T05:39:21;3.80;99.90
33476;DHT22;19814;48.224;11.422;2024-02-14T05:41:47;3.80;99.90
33476;DHT22;19814;48.224;11.422;2024-02-14T05:44:14;3.80;99.90
33476;DHT22;19814;48.224;11.422;2024-02-14T05:46:39;3.80;99.90
33476;DHT22;19814;48.224;11.422;2024-02-14T05:49:06;3.80;99.90
33476;DHT22;19814;48.224;11.422;2024-02-14T05:51:31;3.80;99.90
33476;DHT22;19814;48.224;11.422;2024-02-14T05:53:57;3.80;99.90
33476;DHT22;19814;48.224;11.422;2024-02-14T05:56:22;3.80;99.90
33476;DHT22;19814;48.224;11.422;2024-02-14T05:58:47;3.80;99.90
33476;DHT22;19814;48.224;11.422;2024-02-14T06:01:13;3.70;99.90
33476;DHT22;19814;48.224;11.422;2024-02-14T06:03:40;3.60;99.90
33476;DHT22;19814;48.224;11.422;2024-02-14T06:06:06;3.60;99.90
33476;DHT22;19814;48.224;11.422;2024-02-14T06:08:31;3.60;99.90
33476;DHT22;19814;48.224;11.422;2024-02-14T06:10:57;3.70;99.90
33476;DHT22;19814;48.224;11.422;2024-02-14T06:13:22;3.70;99.90
33476;DHT22;19814;48.224;11.422;2024-02-14T06:15:48;3.80;99.90
33476;DHT22;19814;48.224;11.422;2024-02-14T06:18:13;3.90;99.90
33476;DHT22;19814;48.224;11.422;2024-02-14T06:20:39;3.90;99.90
33476;DHT22;19814;48.224;11.422;2024-02-14T06:23:04;3.80;99.90
33476;DHT22;19814;48.224;11.422;2024-02-14T06:25:30;3.80;99.90
33476;DHT22;19814;48.224;11.422;2024-02-14T06:27:55;3.80;99.90
33476;DHT22;19814;48.224;11.422;2024-02-14T06:30:20;3.80;99.90
33476;DHT22;19814;48.224;11.422;2024-02-14T06:32:46;3.90;99.90
33476;DHT22;19814;48.224;11.422;2024-02-14T06:35:11;4.00;99.90
33476;DHT22;19814;48.224;11.422;2024-02-14T06:37:37;4.10;99.90
33476;DHT22;19814;48.224;11.422;2024-02-14T06:40:03;4.20;99.90
33476;DHT22;19814;48.224;11.422;2024-02-14T06:42:28;4.20;99.90
33476;DHT22;19814;48.224;11.422;2024-02-14T06:44:54;4.30;99.90
33476;DHT22;19814;48.224;11.422;2024-02-14T06:47:19;4.40;99.90
33476;DHT22;19814;48.224;11.422;2024-02-14T06:49:44;4.40;99.90
33476;DHT22;19814;48.224;11.422;2024-02-14T06:52:10;4.40;99.90
33476;DHT22;19814;48.224;11.422;2024-02-14T06:54:35;4.50;99.90
33476;DHT22;19814;48.224;11.422;2024-02-14T06:57:01;4.50;99.90
33476;DHT22;19814;48.224;11.422;2024-02-14T06:59:26;4.60;99.90
33476;DHT22;19814;48.224;11.422;2024-02-14T07:01:52;4.60;99.90
33476;DHT22;19814;48.224;11.422;2024-02-14T07:04:20;4.50;99.90
33476;DHT22;19814;48.224;11.422;2024-02-14T07:06:53;4.60;99.90
33476;DHT22;19814;48.224;11.422;2024-02-14T07:09:19;4.60;99.90
33476;DHT22;19814;48.224;11.422;2024-02-14T07:11:44;4.60;99.90
33476;DHT22;19814;48.224;11.422;2024-02-14T07:14:11;4.60;99.90
33476;DHT22;19814;48.224;11.422;2024-02-14T07:16:36;4.60;99.90
33476;DHT22;19814;48.224;11.422;2024-02-14T07:19:02;4.50;99.90
33476;DHT22;19814;48.224;11.422;2024-02-14T07:21:27;4.60;99.90
33476;DHT22;19814;48.224;11.422;2024-02-14T07:23:53;4.60;99.90
33476;DHT22;19814;48.224;11.422;2024-02-14T07:26:18;4.60;99.90
33476;DHT22;19814;48.224;11.422;2024-02-14T07:28:44;4.60;99.90
33476;DHT22;19814;48.224;11.422;2024-02-14T07:31:09;4.60;99.90
33476;DHT22;19814;48.224;11.422;2024-02-14T07:33:35;4.60;99.90
33476;DHT22;19814;48.224;11.422;2024-02-14T07:36:00;4.60;99.90
33476;DHT22;19814;48.224;11.422;2024-02-14T07:38:26;4.60;99.90
33476;DHT22;19814;48.224;11.422;2024-02-14T07:40:52;4.70;99.90
33476;DHT22;19814;48.224;11.422;2024-02-14T07:43:17;4.90;99.90
33476;DHT22;19814;48.224;11.422;2024-02-14T07:45:42;5.00;99.90
33476;DHT22;19814;48.224;11.422;2024-02-14T07:48:08;5.00;99.90
33476;DHT22;19814;48.224;11.422;2024-02-14T07:50:33;5.00;99.90
33476;DHT22;19814;48.224;11.422;2024-02-14T07:52:59;5.10;99.90
33476;DHT22;19814;48.224;11.422;2024-02-14T07:55:24;5.30;99.90
33476;DHT22;19814;48.224;11.422;2024-02-14T07:57:50;5.40;99.90
33476;DHT22;19814;48.224;11.422;2024-02-14T08:00:15;5.40;99.90
33476;DHT22;19814;48.224;11.422;2024-02-14T08:02:50;5.60;99.90
33476;DHT22;19814;48.224;11.422;2024-02-14T08:05:16;5.70;99.90
33476;DHT22;19814;48.224;11.422;2024-02-14T08:07:41;5.80;99.90
33476;DHT22;19814;48.224;11.422;2024-02-14T08:10:07;5.90;99.90
33476;DHT22;19814;48.224;11.422;2024-02-14T08:12:32;6.10;99.90
33476;DHT22;19814;48.224;11.422;2024-02-14T08:14:58;6.30;99.90
33476;DHT22;19814;48.224;11.422;2024-02-14T08:17:29;6.50;99.90
33476;DHT22;19814;48.224;11.422;2024-02-14T08:19:57;6.70;99.90
33476;DHT22;19814;48.224;11.422;2024-02-14T08:22:23;6.80;99.90
33476;DHT22;19814;48.224;11.422;2024-02-14T08:24:48;7.00;99.90
33476;DHT22;19814;48.224;11.422;2024-02-14T08:27:14;7.20;99.90
33476;DHT22;19814;48.224;11.422;2024-02-14T08:29:39;7.40;99.70
33476;DHT22;19814;48.224;11.422;2024-02-14T08:32:05;7.40;98.80
33476;DHT22;19814;48.224;11.422;2024-02-14T08:34:30;7.80;98.80
33476;DHT22;19814;48.224;11.422;2024-02-14T08:36:56;8.10;97.90
33476;DHT22;19814;48.224;11.422;2024-02-14T08:39:22;8.20;97.10
33476;DHT22;19814;48.224;11.422;2024-02-14T08:41:47;8.40;97.10
33476;DHT22;19814;48.224;11.422;2024-02-14T08:44:13;8.40;96.20
33476;DHT22;19814;48.224;11.422;2024-02-14T08:46:38;8.30;96.10
33476;DHT22;19814;48.224;11.422;2024-02-14T08:49:04;8.50;96.80
33476;DHT22;19814;48.224;11.422;2024-02-14T08:51:34;8.70;97.10
33476;DHT22;19814;48.224;11.422;2024-02-14T08:54:00;9.20;96.60
33476;DHT22;19814;48.224;11.422;2024-02-14T08:56:28;9.70;95.90
33476;DHT22;19814;48.224;11.422;2024-02-14T08:58:53;10.30;95.50
33476;DHT22;19814;48.224;11.422;2024-02-14T09:01:19;11.20;94.00
33476;DHT22;19814;48.224;11.422;2024-02-14T09:03:46;11.90;93.10
33476;DHT22;19814;48.224;11.422;2024-02-14T09:06:15;13.00;92.40
33476;DHT22;19814;48.224;11.422;2024-02-14T09:08:43;13.70;91.20
33476;DHT22;19814;48.224;11.422;2024-02-14T09:11:09;13.80;90.70
33476;DHT22;19814;48.224;11.422;2024-02-14T09:13:34;13.80;90.00
33476;DHT22;19814;48.224;11.422;2024-02-14T09:16:00;13.70;87.40
33476;DHT22;19814;48.224;11.422;2024-02-14T09:18:26;13.40;85.70
33476;DHT22;19814;48.224;11.422;2024-02-14T09:20:52;13.20;86.00
33476;DHT22;19814;48.224;11.422;2024-02-14T09:23:18;12.80;88.20
33476;DHT22;19814;48.224;11.422;2024-02-14T09:25:47;12.60;87.50
33476;DHT22;19814;48.224;11.422;2024-02-14T09:28:16;12.40;86.80
33476;DHT22;19814;48.224;11.422;2024-02-14T09:30:41;12.00;90.20
33476;DHT22;19814;48.224;11.422;2024-02-14T09:33:07;11.90;90.30
33476;DHT22;19814;48.224;11.422;2024-02-14T09:35:32;11.90;90.70
33476;DHT22;19814;48.224;11.422;2024-02-14T09:37:58;11.80;90.60
33476;DHT22;19814;48.224;11.422;2024-02-14T09:40:24;11.70;90.60
33476;DHT22;19814;48.224;11.422;2024-02-14T09:42:53;11.70;90.10
33476;DHT22;19814;48.224;11.422;2024-02-14T09:45:19;11.70;90.90
33476;DHT22;19814;48.224;11.422;2024-02-14T09:47:45;11.80;90.30
33476;DHT22;19814;48.224;11.422;2024-02-14T09:50:11;11.80;90.10
33476;DHT22;19814;48.224;11.422;2024-02-14T09:52:37;11.90;89.60
33476;DHT22;19814;48.224;11.422;2024-02-14T09:55:03;12.00;90.20
33476;DHT22;19814;48.224;11.422;2024-02-14T09:57:30;12.20;88.30
33476;DHT22;19814;48.224;11.422;2024-02-14T09:59:56;12.40;87.80
33476;DHT22;19814;48.224;11.422;2024-02-14T10:02:21;12.70;87.70
33476;DHT22;19814;48.224;11.422;2024-02-14T10:04:47;13.30;85.10
33476;DHT22;19814;48.224;11.422;2024-02-14T10:07:13;13.50;86.00
33476;DHT22;19814;48.224;11.422;2024-02-14T10:09:41;13.80;83.20
33476;DHT22;19814;48.224;11.422;2024-02-14T10:12:07;13.90;81.50
33476;DHT22;19814;48.224;11.422;2024-02-14T10:14:34;13.80;82.20
33476;DHT22;19814;48.224;11.422;2024-02-14T10:17:00;13.70;83.50
33476;DHT22;19814;48.224;11.422;2024-02-14T10:19:25;13.90;82.20
33476;DHT22;19814;48.224;11.422;2024-02-14T10:22:00;14.80;80.70
33476;DHT22;19814;48.224;11.422;2024-02-14T10:24:29;16.20;76.80
33476;DHT22;19814;48.224;11.422;2024-02-14T10:26:56;17.40;76.00
33476;DHT22;19814;48.224;11.422;2024-02-14T10:29:23;19.60;70.30
33476;DHT22;19814;48.224;11.422;2024-02-14T10:31:49;21.00;66.30
33476;DHT22;19814;48.224;11.422;2024-02-14T10:34:15;23.00;58.30
33476;DHT22;19814;48.224;11.422;2024-02-14T10:36:42;24.40;53.30
33476;DHT22;19814;48.224;11.422;2024-02-14T10:39:09;25.70;52.40
33476;DHT22;19814;48.224;11.422;2024-02-14T10:41:34;25.60;50.30
33476;DHT22;19814;48.224;11.422;2024-02-14T10:44:02;25.20;48.60
33476;DHT22;19814;48.224;11.422;2024-02-14T10:46:28;25.00;48.50
33476;DHT22;19814;48.224;11.422;2024-02-14T10:49:03;25.00;47.00
33476;DHT22;19814;48.224;11.422;2024-02-14T10:51:30;24.90;46.50
33476;DHT22;19814;48.224;11.422;2024-02-14T10:53:56;25.40;47.80
33476;DHT22;19814;48.224;11.422;2024-02-14T10:56:24;25.30;46.40
33476;DHT22;19814;48.224;11.422;2024-02-14T10:58:52;25.50;45.30
33476;DHT22;19814;48.224;11.422;2024-02-14T11:01:20;27.10;44.80
33476;DHT22;19814;48.224;11.422;2024-02-14T11:03:46;26.80;44.10
33476;DHT22;19814;48.224;11.422;2024-02-14T11:06:15;25.50;45.60
33476;DHT22;19814;48.224;11.422;2024-02-14T11:08:41;24.80;46.40
33476;DHT22;19814;48.224;11.422;2024-02-14T11:11:06;24.10;45.50
33476;DHT22;19814;48.224;11.422;2024-02-14T11:13:32;22.70;48.00
33476;DHT22;19814;48.224;11.422;2024-02-14T11:16:01;21.80;48.60
33476;DHT22;19814;48.224;11.422;2024-02-14T11:18:27;21.50;50.90
33476;DHT22;19814;48.224;11.422;2024-02-14T11:20:56;20.80;52.10
33476;DHT22;19814;48.224;11.422;2024-02-14T11:23:24;19.90;54.90
33476;DHT22;19814;48.224;11.422;2024-02-14T11:25:50;19.10;55.80
33476;DHT22;19814;48.224;11.422;2024-02-14T11:28:17;18.40;56.60
33476;DHT22;19814;48.224;11.422;2024-02-14T11:30:43;17.90;58.60
33476;DHT22;19814;48.224;11.422;2024-02-14T11:33:12;17.30;60.80
33476;DHT22;19814;48.224;11.422;2024-02-14T11:35:39;17.20;60.20
33476;DHT22;19814;48.224;11.422;2024-02-14T11:38:05;16.70;60.30
33476;DHT22;19814;48.224;11.422;2024-02-14T11:40:32;16.60;60.60
33476;DHT22;19814;48.224;11.422;2024-02-14T11:42:58;16.50;62.80
33476;DHT22;19814;48.224;11.422;2024-02-14T11:45:23;16.30;63.70
33476;DHT22;19814;48.224;11.422;2024-02-14T11:47:49;16.00;63.70
33476;DHT22;19814;48.224;11.422;2024-02-14T11:50:15;15.90;64.80
33476;DHT22;19814;48.224;11.422;2024-02-14T11:52:43;15.90;65.90
33476;DHT22;19814;48.224;11.422;2024-02-14T11:55:08;15.90;65.80
33476;DHT22;19814;48.224;11.422;2024-02-14T11:57:35;16.10;66.40
33476;DHT22;19814;48.224;11.422;2024-02-14T12:00:01;16.00;66.60
33476;DHT22;19814;48.224;11.422;2024-02-14T12:02:26;15.90;66.30
33476;DHT22;19814;48.224;11.422;2024-02-14T12:04:52;15.90;66.80
33476;DHT22;19814;48.224;11.422;2024-02-14T12:07:20;16.00;66.80
33476;DHT22;19814;48.224;11.422;2024-02-14T12:09:47;16.40;67.30
33476;DHT22;19814;48.224;11.422;2024-02-14T12:12:14;17.40;65.30
33476;DHT22;19814;48.224;11.422;2024-02-14T12:14:43;17.80;63.20
33476;DHT22;19814;48.224;11.422;2024-02-14T12:17:08;17.40;63.60
33476;DHT22;19814;48.224;11.422;2024-02-14T12:19:35;17.20;63.70
33476;DHT22;19814;48.224;11.422;2024-02-14T12:22:08;16.80;63.80
33476;DHT22;19814;48.224;11.422;2024-02-14T12:24:35;16.20;67.00
33476;DHT22;19814;48.224;11.422;2024-02-14T12:27:01;15.80;67.70
33476;DHT22;19814;48.224;11.422;2024-02-14T12:29:29;15.50;67.30
33476;DHT22;19814;48.224;11.422;2024-02-14T12:32:07;15.30;68.50
33476;DHT22;19814;48.224;11.422;2024-02-14T12:34:32;15.30;70.60
33476;DHT22;19814;48.224;11.422;2024-02-14T12:36:59;15.40;68.70
33476;DHT22;19814;48.224;11.422;2024-02-14T12:39:28;15.20;68.70
33476;DHT22;19814;48.224;11.422;2024-02-14T12:41:54;15.00;70.80
33476;DHT22;19814;48.224;11.422;2024-02-14T12:44:20;14.70;74.90
33476;DHT22;19814;48.224;11.422;2024-02-14T12:46:45;14.20;75.10
33476;DHT22;19814;48.224;11.422;2024-02-14T12:49:11;13.90;75.60
33476;DHT22;19814;48.224;11.422;2024-02-14T12:51:36;13.60;78.00
33476;DHT22;19814;48.224;11.422;2024-02-14T12:54:03;13.50;78.90
33476;DHT22;19814;48.224;11.422;2024-02-14T12:56:29;13.50;81.30
33476;DHT22;19814;48.224;11.422;2024-02-14T12:58:55;13.70;81.20
33476;DHT22;19814;48.224;11.422;2024-02-14T13:01:20;13.80;79.70
33476;DHT22;19814;48.224;11.422;2024-02-14T13:03:46;13.90;81.50
33476;DHT22;19814;48.224;11.422;2024-02-14T13:06:11;14.00;80.60
33476;DHT22;19814;48.224;11.422;2024-02-14T13:08:37;14.10;80.10
33476;DHT22;19814;48.224;11.422;2024-02-14T13:11:05;14.20;80.80
33476;DHT22;19814;48.224;11.422;2024-02-14T13:13:30;14.50;79.60
33476;DHT22;19814;48.224;11.422;2024-02-14T13:15:56;14.60;79.40
33476;DHT22;19814;48.224;11.422;2024-02-14T13:18:21;14.50;79.10
33476;DHT22;19814;48.224;11.422;2024-02-14T13:20:47;14.50;79.60
33476;DHT22;19814;48.224;11.422;2024-02-14T13:23:12;14.40;80.40
33476;DHT22;19814;48.224;11.422;2024-02-14T13:25:39;14.40;80.30
33476;DHT22;19814;48.224;11.422;2024-02-14T13:28:05;14.30;77.70
33476;DHT22;19814;48.224;11.422;2024-02-14T13:30:30;14.20;79.60
33476;DHT22;19814;48.224;11.422;2024-02-14T13:32:56;14.10;78.50
33476;DHT22;19814;48.224;11.422;2024-02-14T13:35:22;14.00;79.60
33476;DHT22;19814;48.224;11.422;2024-02-14T13:37:48;14.00;79.60
33476;DHT22;19814;48.224;11.422;2024-02-14T13:40:14;14.10;78.90
33476;DHT22;19814;48.224;11.422;2024-02-14T13:42:39;14.20;78.20
33476;DHT22;19814;48.224;11.422;2024-02-14T13:45:05;14.30;78.80
33476;DHT22;19814;48.224;11.422;2024-02-14T13:47:35;14.40;79.00
33476;DHT22;19814;48.224;11.422;2024-02-14T13:50:01;14.50;78.10
33476;DHT22;19814;48.224;11.422;2024-02-14T13:52:29;14.60;78.90
33476;DHT22;19814;48.224;11.422;2024-02-14T13:54:54;14.70;76.00
33476;DHT22;19814;48.224;11.422;2024-02-14T13:57:20;14.80;77.10
33476;DHT22;19814;48.224;11.422;2024-02-14T13:59:45;14.80;76.40
33476;DHT22;19814;48.224;11.422;2024-02-14T14:02:10;14.70;76.40
33476;DHT22;19814;48.224;11.422;2024-02-14T14:04:36;14.70;76.80
33476;DHT22;19814;48.224;11.422;2024-02-14T14:07:01;14.70;77.90
33476;DHT22;19814;48.224;11.422;2024-02-14T14:09:29;14.80;77.70
33476;DHT22;19814;48.224;11.422;2024-02-14T14:11:57;14.90;76.70
33476;DHT22;19814;48.224;11.422;2024-02-14T14:14:23;15.20;76.20
33476;DHT22;19814;48.224;11.422;2024-02-14T14:16:52;15.40;74.40
33476;DHT22;19814;48.224;11.422;2024-02-14T14:19:18;15.40;74.90
33476;DHT22;19814;48.224;11.422;2024-02-14T14:21:43;15.50;74.20
33476;DHT22;19814;48.224;11.422;2024-02-14T14:24:08;15.50;75.70
33476;DHT22;19814;48.224;11.422;2024-02-14T14:26:34;15.30;74.40
33476;DHT22;19814;48.224;11.422;2024-02-14T14:29:00;15.20;75.60
33476;DHT22;19814;48.224;11.422;2024-02-14T14:31:26;15.10;76.00
33476;DHT22;19814;48.224;11.422;2024-02-14T14:36:35;15.00;75.90
33476;DHT22;19814;48.224;11.422;2024-02-14T14:39:02;15.10;76.70
33476;DHT22;19814;48.224;11.422;2024-02-14T14:41:28;15.30;76.80
33476;DHT22;19814;48.224;11.422;2024-02-14T14:43:53;15.30;76.80
33476;DHT22;19814;48.224;11.422;2024-02-14T14:46:19;15.50;76.70
33476;DHT22;19814;48.224;11.422;2024-02-14T14:48:44;15.50;75.30
33476;DHT22;19814;48.224;11.422;2024-02-14T14:51:11;15.30;75.10
33476;DHT22;19814;48.224;11.422;2024-02-14T14:53:36;15.10;76.30
33476;DHT22;19814;48.224;11.422;2024-02-14T14:56:02;14.90;76.50
33476;DHT22;19814;48.224;11.422;2024-02-14T14:58:28;14.70;77.60
33476;DHT22;19814;48.224;11.422;2024-02-14T15:00:53;14.60;79.20
33476;DHT22;19814;48.224;11.422;2024-02-14T15:03:20;14.60;78.50
33476;DHT22;19814;48.224;11.422;2024-02-14T15:05:46;14.50;79.50
33476;DHT22;19814;48.224;11.422;2024-02-14T15:08:12;14.50;79.70
33476;DHT22;19814;48.224;11.422;2024-02-14T15:10:38;14.40;80.90
33476;DHT22;19814;48.224;11.422;2024-02-14T15:13:10;14.40;81.10
33476;DHT22;19814;48.224;11.422;2024-02-14T15:15:39;14.20;81.80
33476;DHT22;19814;48.224;11.422;2024-02-14T15:18:04;14.10;82.90
33476;DHT22;19814;48.224;11.422;2024-02-14T15:20:30;13.90;84.20